Time;durP1;ratioP1;P1;durP2;ratioP2;P2;SDS_P1;SDS_P2;PMS_P1;PMS_P2;Temp;Humidity;BMP_temperature;BMP_pressure;BME280_temperature;BME280_humidity;BME280_pressure;Samples;Min_cycle;Max_cycle;Signal;HPM_P1;HPM_P2
2022/03/02 00:01:56;;;;;;;3.17;2.43;;;20.50;35.70;;;;;;5115663;28;20104;-78
2022/03/02 00:04:23;;;;;;;3.00;2.25;;;20.50;35.70;;;;;;5115624;28;20063;-77
2022/03/02 00:06:50;;;;;;;3.75;2.55;;;20.50;35.70;;;;;;5097183;28;20052;-77
2022/03/02 00:09:17;;;;;;;3.53;2.45;;;20.50;35.70;;;;;;5115345;28;20130;-77
2022/03/02 00:11:43;;;;;;;2.97;1.92;;;20.50;35.70;;;;;;5114469;28;20052;-77
2022/03/02 00:14:08;;;;;;;2.88;2.20;;;20.50;35.70;;;;;;5115502;28;20056;-77
2022/03/02 00:16:35;;;;;;;4.10;2.35;;;20.60;35.70;;;;;;5115477;28;20067;-78
2022/03/02 00:19:01;;;;;;;3.70;2.75;;;20.50;35.70;;;;;;5112657;28;20554;-77
2022/03/02 00:21:27;;;;;;;2.58;2.30;;;20.50;35.70;;;;;;5112018;28;20134;-77
2022/03/02 00:23:53;;;;;;;3.45;2.50;;;20.50;35.70;;;;;;5115137;28;20143;-77
2022/03/02 00:26:19;;;;;;;2.60;2.38;;;20.50;35.70;;;;;;5112551;28;20488;-77
2022/03/02 00:28:45;;;;;;;4.32;2.30;;;20.50;35.70;;;;;;5115089;28;20487;-77
2022/03/02 00:31:11;;;;;;;2.63;2.30;;;20.50;35.70;;;;;;5115161;28;20059;-78
2022/03/02 00:33:36;;;;;;;3.15;2.22;;;20.50;35.70;;;;;;5114912;28;20067;-77
2022/03/02 00:36:02;;;;;;;3.65;2.38;;;20.50;35.70;;;;;;5114940;28;20044;-78
2022/03/02 00:38:28;;;;;;;2.60;2.40;;;20.50;35.70;;;;;;5114657;28;20086;-77
2022/03/02 00:40:53;;;;;;;2.55;2.35;;;20.50;35.70;;;;;;5115499;28;20055;-78
2022/03/02 00:43:19;;;;;;;2.47;2.28;;;20.50;35.70;;;;;;5114834;28;20047;-77
2022/03/02 00:45:45;;;;;;;2.65;2.15;;;20.50;35.70;;;;;;5114878;28;20062;-77
2022/03/02 00:48:10;;;;;;;3.00;2.30;;;20.50;35.70;;;;;;5114805;28;20061;-77
2022/03/02 00:50:37;;;;;;;2.55;2.25;;;20.50;35.70;;;;;;5114916;28;20510;-77
2022/03/02 00:53:08;;;;;;;2.95;2.60;;;20.50;35.70;;;;;;5114809;28;20043;-77
2022/03/02 00:55:35;;;;;;;2.88;2.50;;;20.50;35.70;;;;;;5115074;28;20135;-77
2022/03/02 00:58:02;;;;;;;3.00;2.20;;;20.60;35.70;;;;;;5114696;28;20423;-77
2022/03/02 01:00:28;;;;;;;3.72;2.63;;;20.50;35.70;;;;;;5114606;28;20051;-77
2022/03/02 01:02:54;;;;;;;2.75;2.00;;;20.50;35.70;;;;;;5114673;28;20062;-78
2022/03/02 01:05:20;;;;;;;3.08;2.45;;;20.60;35.70;;;;;;5094444;28;20496;-77
2022/03/02 01:07:45;;;;;;;3.08;2.58;;;20.50;35.70;;;;;;5112553;28;20487;-77
2022/03/02 01:10:11;;;;;;;3.83;2.50;;;20.50;35.70;;;;;;5114430;28;20062;-77
2022/03/02 01:12:37;;;;;;;2.60;2.25;;;20.50;35.80;;;;;;5114455;28;20163;-77
2022/03/02 01:15:06;;;;;;;2.40;2.17;;;20.50;35.70;;;;;;5114769;28;20519;-77
2022/03/02 01:17:32;;;;;;;3.30;2.47;;;20.50;35.70;;;;;;5114082;28;20044;-77
2022/03/02 01:19:58;;;;;;;2.47;2.10;;;20.50;35.70;;;;;;5114539;28;20058;-77
2022/03/02 01:22:24;;;;;;;2.88;2.10;;;20.50;35.70;;;;;;5113745;28;20055;-77
2022/03/02 01:24:50;;;;;;;2.20;2.00;;;20.50;35.70;;;;;;5096049;28;20052;-77
2022/03/02 01:27:16;;;;;;;2.60;2.20;;;20.50;35.70;;;;;;5114095;28;20499;-77
2022/03/02 01:29:42;;;;;;;3.28;2.47;;;20.50;35.70;;;;;;5114137;28;20062;-77
2022/03/02 01:32:09;;;;;;;2.70;2.10;;;20.50;35.70;;;;;;5114193;28;20058;-77
2022/03/02 01:34:37;;;;;;;2.75;2.30;;;20.50;35.70;;;;;;5114061;28;20043;-77
2022/03/02 01:37:03;;;;;;;2.75;2.35;;;20.50;35.70;;;;;;5113954;28;20046;-77
2022/03/02 01:39:29;;;;;;;3.40;2.58;;;20.50;35.70;;;;;;5114040;28;20079;-77
2022/03/02 01:41:55;;;;;;;2.25;1.95;;;20.50;35.70;;;;;;5095729;28;20087;-77
2022/03/02 01:44:24;;;;;;;2.80;2.45;;;20.50;35.70;;;;;;5095713;28;20051;-77
2022/03/02 01:46:50;;;;;;;2.58;2.30;;;20.50;35.70;;;;;;5113698;28;20064;-77
2022/03/02 01:49:17;;;;;;;2.30;2.10;;;20.50;35.70;;;;;;5114118;28;20488;-77
2022/03/02 01:51:43;;;;;;;3.88;2.10;;;20.50;35.70;;;;;;5113772;28;20077;-77
2022/03/02 01:54:09;;;;;;;2.55;2.22;;;20.50;35.70;;;;;;5113557;28;20044;-77
2022/03/02 01:56:36;;;;;;;2.58;2.15;;;20.50;35.70;;;;;;5113802;28;20054;-77
2022/03/02 01:59:04;;;;;;;3.03;2.40;;;20.50;35.70;;;;;;5113470;28;20052;-77
2022/03/02 02:01:30;;;;;;;2.80;2.50;;;20.50;35.70;;;;;;5113477;28;20115;-77
2022/03/02 02:03:56;;;;;;;2.58;2.33;;;20.50;35.80;;;;;;5094901;28;20055;-77
2022/03/02 02:06:22;;;;;;;2.88;2.47;;;20.50;35.70;;;;;;5094070;28;20048;-77
2022/03/02 02:08:48;;;;;;;2.47;2.17;;;20.50;35.70;;;;;;5113540;28;20056;-77
2022/03/02 02:11:14;;;;;;;2.92;2.17;;;20.50;35.70;;;;;;5113564;28;20062;-77
2022/03/02 02:13:40;;;;;;;3.30;2.08;;;20.50;35.70;;;;;;5095458;28;20048;-77
2022/03/02 02:16:07;;;;;;;3.35;2.45;;;20.50;35.70;;;;;;5113497;28;20047;-77
2022/03/02 02:18:33;;;;;;;2.58;2.30;;;20.50;35.70;;;;;;5113242;28;20059;-78
2022/03/02 02:21:07;;;;;;;2.22;1.92;;;20.50;35.70;;;;;;5113712;28;20380;-77
2022/03/02 02:23:34;;;;;;;3.53;2.20;;;20.50;35.70;;;;;;5113768;28;20426;-77
2022/03/02 02:26:00;;;;;;;3.70;2.53;;;20.50;35.70;;;;;;5078701;28;20872;-77
2022/03/02 02:28:28;;;;;;;2.40;2.05;;;20.50;35.70;;;;;;5113133;28;20047;-77
2022/03/02 02:30:55;;;;;;;2.65;2.35;;;20.50;35.70;;;;;;5076472;28;20402;-77
2022/03/02 02:33:22;;;;;;;2.85;2.28;;;20.50;35.70;;;;;;5094038;28;20058;-77
2022/03/02 02:35:48;;;;;;;2.92;2.38;;;20.50;35.70;;;;;;5094817;28;20048;-77
2022/03/02 02:38:16;;;;;;;3.03;2.38;;;20.50;35.70;;;;;;5095060;28;20047;-77
2022/03/02 02:40:42;;;;;;;3.17;2.50;;;20.50;36.30;;;;;;5094859;28;20055;-78
2022/03/02 02:43:08;;;;;;;2.60;2.10;;;20.50;35.70;;;;;;5111857;28;20096;-77
2022/03/02 02:45:33;;;;;;;2.50;2.30;;;20.50;35.70;;;;;;5113053;28;20127;-77
2022/03/02 02:47:59;;;;;;;4.07;2.63;;;20.50;35.70;;;;;;5094799;28;20155;-78
2022/03/02 02:50:27;;;;;;;2.45;2.25;;;20.50;35.70;;;;;;5113038;28;20109;-77
2022/03/02 02:52:55;;;;;;;3.13;2.25;;;20.50;35.70;;;;;;5094588;28;20059;-77
2022/03/02 02:55:22;;;;;;;2.33;2.13;;;20.50;35.70;;;;;;5113222;28;20048;-77
2022/03/02 02:57:48;;;;;;;2.67;2.30;;;20.50;35.80;;;;;;5112852;28;20548;-77
2022/03/02 03:00:16;;;;;;;2.42;2.10;;;20.50;35.70;;;;;;5112867;28;20085;-77
2022/03/02 03:02:44;;;;;;;2.53;2.20;;;20.50;35.70;;;;;;5113173;28;20051;-77
2022/03/02 03:05:15;;;;;;;2.97;2.47;;;20.50;35.70;;;;;;5092535;28;20048;-77
2022/03/02 03:07:41;;;;;;;;;;;20.50;35.70;;;;;;5113283;28;20047;-78
2022/03/02 03:10:08;;;;;;;2.28;2.08;;;20.50;35.70;;;;;;5112676;28;19942;-77
2022/03/02 03:12:34;;;;;;;3.42;2.38;;;20.50;35.60;;;;;;5112767;28;20130;-77
2022/03/02 03:15:00;;;;;;;2.50;2.30;;;20.60;35.70;;;;;;5112865;28;20075;-77
2022/03/02 03:17:26;;;;;;;2.42;2.17;;;20.60;35.70;;;;;;5112846;28;20090;-77
2022/03/02 03:19:51;;;;;;;2.38;2.05;;;20.60;35.70;;;;;;5112580;28;20064;-77
2022/03/02 03:22:17;;;;;;;2.75;2.40;;;20.60;35.60;;;;;;5094263;28;20505;-77
2022/03/02 03:24:43;;;;;;;2.60;2.20;;;20.60;35.60;;;;;;5112542;28;20083;-77
2022/03/02 03:27:08;;;;;;;2.85;2.50;;;20.60;35.60;;;;;;5112865;28;20433;-78
2022/03/02 03:29:34;;;;;;;4.63;2.88;;;20.60;35.60;;;;;;5112957;28;20059;-77
2022/03/02 03:31:59;;;;;;;3.55;2.55;;;20.60;35.50;;;;;;5094238;28;20113;-77
2022/03/02 03:34:25;;;;;;;2.78;2.25;;;20.70;35.60;;;;;;5112391;28;20076;-77
2022/03/02 03:36:52;;;;;;;3.78;2.83;;;20.70;35.50;;;;;;5112360;28;20495;-77
2022/03/02 03:39:19;;;;;;;3.75;2.50;;;20.70;35.50;;;;;;5112324;28;20052;-77
2022/03/02 03:41:45;;;;;;;2.60;2.40;;;20.70;35.50;;;;;;5112402;28;20059;-77
2022/03/02 03:44:12;;;;;;;3.53;2.65;;;20.70;35.50;;;;;;5094346;28;20105;-77
2022/03/02 03:46:37;;;;;;;2.60;2.38;;;20.70;35.50;;;;;;5115516;28;20552;-77
2022/03/02 03:49:03;;;;;;;3.00;2.20;;;20.70;35.50;;;;;;5115653;28;20514;-77
2022/03/02 03:51:29;;;;;;;2.85;2.38;;;20.70;35.40;;;;;;5097072;28;20089;-77
2022/03/02 03:53:54;;;;;;;2.80;2.50;;;20.70;35.40;;;;;;5115486;28;20062;-77
2022/03/02 03:56:20;;;;;;;2.88;2.05;;;20.70;35.40;;;;;;5115614;28;20056;-77
2022/03/02 03:58:45;;;;;;;3.25;2.50;;;20.80;35.50;;;;;;5115471;28;20570;-77
2022/03/02 04:01:11;;;;;;;3.08;2.47;;;20.70;35.40;;;;;;5115879;28;20552;-77
2022/03/02 04:03:37;;;;;;;3.10;2.40;;;20.80;35.50;;;;;;5095755;28;20058;-77
2022/03/02 04:06:03;;;;;;;2.65;2.40;;;20.80;35.40;;;;;;5114591;28;20087;-77
2022/03/02 04:08:29;;;;;;;2.70;2.15;;;20.80;35.40;;;;;;5115546;28;20047;-77
2022/03/02 04:10:54;;;;;;;2.22;2.03;;;20.80;35.40;;;;;;5115413;28;20064;-77
2022/03/02 04:13:20;;;;;;;1.75;1.65;;;20.80;35.40;;;;;;5114651;28;20079;-77
2022/03/02 04:15:46;;;;;;;2.65;2.20;;;20.80;35.40;;;;;;5115344;28;20039;-77
2022/03/02 04:18:12;;;;;;;2.08;1.90;;;20.80;35.40;;;;;;5115391;28;20046;-77
2022/03/02 04:20:38;;;;;;;2.67;2.30;;;20.80;35.40;;;;;;5113967;28;20059;-78
2022/03/02 04:23:05;;;;;;;2.35;2.15;;;20.80;35.40;;;;;;5115319;28;20117;-77
2022/03/02 04:25:31;;;;;;;2.47;1.88;;;20.80;35.40;;;;;;5115237;28;20062;-77
2022/03/02 04:27:56;;;;;;;2.47;2.28;;;20.80;35.40;;;;;;5096766;28;20047;-77
2022/03/02 04:30:22;;;;;;;2.97;2.38;;;20.80;35.50;;;;;;5115148;28;20055;-77
2022/03/02 04:32:48;;;;;;;2.28;2.08;;;20.80;35.40;;;;;;5115101;28;20078;-77
2022/03/02 04:35:14;;;;;;;2.45;2.25;;;20.80;35.40;;;;;;5113803;28;20063;-77
2022/03/02 04:37:40;;;;;;;4.85;2.45;;;20.80;35.40;;;;;;5115018;28;20047;-77
2022/03/02 04:40:09;;;;;;;2.42;2.22;;;20.80;35.40;;;;;;5114819;28;20104;-77
2022/03/02 04:42:35;;;;;;;2.70;2.38;;;20.80;35.40;;;;;;5115011;28;20233;-77
2022/03/02 04:45:01;;;;;;;3.35;2.63;;;20.80;35.40;;;;;;5115152;28;20055;-77
2022/03/02 04:47:26;;;;;;;2.33;2.00;;;20.80;35.40;;;;;;5114904;28;20051;-77
2022/03/02 04:49:52;;;;;;;2.83;2.10;;;20.70;35.40;;;;;;5114747;28;20142;-77
2022/03/02 04:52:18;;;;;;;2.33;2.10;;;20.80;35.40;;;;;;5115094;28;20082;-77
2022/03/02 04:57:29;;;;;;;3.03;2.47;;;20.80;35.40;;;;;;5114051;28;20039;-77
2022/03/02 04:59:54;;;;;;;2.47;2.20;;;20.70;35.40;;;;;;5114430;28;20078;-77
2022/03/02 05:02:20;;;;;;;3.03;2.45;;;20.80;35.40;;;;;;5114677;28;20048;-77
2022/03/02 05:04:45;;;;;;;2.97;2.58;;;20.70;35.40;;;;;;5114658;28;20127;-78
2022/03/02 05:07:11;;;;;;;3.08;2.50;;;20.70;35.40;;;;;;5114904;28;20058;-77
2022/03/02 05:09:37;;;;;;;3.22;2.03;;;20.70;35.40;;;;;;5114447;28;20461;-77
2022/03/02 05:12:02;;;;;;;2.72;2.20;;;20.70;35.40;;;;;;5115034;28;20090;-78
2022/03/02 05:14:29;;;;;;;2.85;2.40;;;20.70;35.40;;;;;;5096175;28;20062;-77
2022/03/02 05:16:54;;;;;;;3.10;2.70;;;20.70;35.40;;;;;;5114347;28;20503;-77
2022/03/02 05:19:20;;;;;;;2.42;1.92;;;20.70;35.40;;;;;;5114230;28;20099;-77
2022/03/02 05:21:47;;;;;;;3.17;2.47;;;20.70;35.40;;;;;;5114423;28;20051;-77
2022/03/02 05:24:14;;;;;;;2.85;2.13;;;20.70;35.40;;;;;;5114297;28;20106;-77
2022/03/02 05:26:40;;;;;;;2.53;2.30;;;20.70;35.40;;;;;;5095761;28;20044;-77
2022/03/02 05:29:05;;;;;;;2.90;2.60;;;20.70;35.40;;;;;;5113968;28;20104;-77
2022/03/02 05:31:31;;;;;;;2.60;2.40;;;20.70;35.40;;;;;;5114092;28;20059;-77
2022/03/02 05:33:56;;;;;;;2.55;2.35;;;20.80;35.40;;;;;;5112312;28;20181;-77
2022/03/02 05:36:22;;;;;;;2.67;2.47;;;20.80;35.40;;;;;;5113964;28;20442;-77
2022/03/02 05:38:48;;;;;;;2.60;2.20;;;20.80;35.40;;;;;;5095354;28;20079;-77
2022/03/02 05:41:13;;;;;;;2.50;2.30;;;20.70;35.40;;;;;;5114072;28;20047;-77
2022/03/02 05:43:39;;;;;;;2.83;2.53;;;20.80;35.40;;;;;;5112816;28;20453;-77
2022/03/02 05:46:04;;;;;;;2.97;2.20;;;20.80;35.40;;;;;;5113896;28;20039;-77
2022/03/02 05:48:30;;;;;;;2.67;2.47;;;20.70;35.40;;;;;;5094696;28;20052;-77
2022/03/02 05:50:55;;;;;;;4.35;2.50;;;20.80;35.40;;;;;;5095637;28;20052;-77
2022/03/02 05:53:21;;;;;;;2.92;2.60;;;20.80;35.40;;;;;;5113737;28;20059;-77
2022/03/02 05:55:47;;;;;;;2.67;2.47;;;20.80;35.40;;;;;;5111911;28;20060;-77
2022/03/02 05:58:12;;;;;;;2.50;2.30;;;20.80;35.40;;;;;;5113651;28;20100;-77
2022/03/02 06:00:41;;;;;;;2.80;2.40;;;20.80;35.40;;;;;;5113688;28;20498;-77
2022/03/02 06:03:07;;;;;;;2.50;2.10;;;20.80;35.40;;;;;;5113447;28;20058;-77
2022/03/02 06:05:32;;;;;;;3.17;2.70;;;20.80;35.40;;;;;;5113641;28;20088;-77
2022/03/02 06:07:58;;;;;;;2.30;2.10;;;20.80;35.40;;;;;;5113872;28;20391;-78
2022/03/02 06:10:24;;;;;;;2.47;2.28;;;20.70;35.50;;;;;;5113615;28;20050;-77
2022/03/02 06:12:49;;;;;;;3.38;2.30;;;20.80;35.40;;;;;;5090225;28;20066;-77
2022/03/02 06:15:15;;;;;;;3.05;2.33;;;20.80;35.40;;;;;;5113757;28;20043;-77
2022/03/02 06:17:41;;;;;;;3.75;2.42;;;20.80;35.40;;;;;;5113842;28;20078;-77
2022/03/02 06:20:08;;;;;;;2.58;2.38;;;20.80;35.40;;;;;;5113409;28;20052;-77
2022/03/02 06:22:34;;;;;;;2.50;2.30;;;20.80;35.40;;;;;;5113300;28;20055;-78
2022/03/02 06:24:59;;;;;;;3.03;2.17;;;20.80;35.40;;;;;;5113341;28;20048;-77
2022/03/02 06:27:25;;;;;;;3.30;2.60;;;20.80;35.40;;;;;;5111315;28;20056;-77
2022/03/02 06:29:51;;;;;;;3.22;2.35;;;20.80;35.30;;;;;;5113028;28;20083;-77
2022/03/02 06:32:16;;;;;;;3.40;2.50;;;20.90;35.30;;;;;;5113195;28;20056;-78
2022/03/02 06:34:42;;;;;;;3.45;2.40;;;20.90;35.30;;;;;;5113141;28;20055;-77
2022/03/02 06:37:08;;;;;;;3.10;2.40;;;20.90;35.20;;;;;;5113250;28;20075;-77
2022/03/02 06:39:33;;;;;;;2.90;2.60;;;20.90;35.10;;;;;;5113146;28;20094;-77
2022/03/02 06:42:17;;;;;;;2.65;2.42;;;21.00;35.00;;;;;;5113018;28;20077;-77
2022/03/02 06:44:59;;;;;;;2.97;2.35;;;21.10;35.00;;;;;;5094536;28;20114;-77
2022/03/02 06:47:29;;;;;;;2.47;2.22;;;21.10;34.90;;;;;;5113252;28;20100;-77
2022/03/02 06:50:03;;;;;;;3.03;2.47;;;21.20;34.80;;;;;;5113042;28;20097;-77
2022/03/02 06:52:43;;;;;;;2.50;2.30;;;21.20;34.80;;;;;;5112867;28;20134;-77
2022/03/02 06:55:12;;;;;;;2.33;2.05;;;21.20;34.80;;;;;;5112928;28;20488;-78
2022/03/02 06:57:38;;;;;;;2.60;2.22;;;21.30;34.70;;;;;;5112645;28;20112;-77
2022/03/02 07:00:14;;;;;;;2.60;2.38;;;21.30;34.70;;;;;;5111405;28;20506;-77
2022/03/02 07:02:48;;;;;;;2.88;2.60;;;21.30;34.70;;;;;;5112767;28;20085;-77
2022/03/02 07:05:15;;;;;;;2.55;2.30;;;21.30;34.60;;;;;;5112726;28;20491;-77
2022/03/02 07:07:41;;;;;;;2.60;2.33;;;21.40;34.50;;;;;;5112770;28;20973;-77
2022/03/02 07:10:08;;;;;;;2.95;2.65;;;21.40;34.40;;;;;;5093282;28;20135;-77
2022/03/02 07:12:35;;;;;;;2.85;2.47;;;21.50;34.40;;;;;;5112770;28;20056;-77
2022/03/02 07:15:00;;;;;;;2.58;2.20;;;21.60;34.30;;;;;;5112574;28;20095;-77
2022/03/02 07:17:26;;;;;;;2.60;2.40;;;21.60;34.30;;;;;;5112796;28;20425;-77
2022/03/02 07:19:53;;;;;;;2.75;2.15;;;21.60;34.10;;;;;;5113896;28;20100;-77
2022/03/02 07:22:21;;;;;;;2.70;2.50;;;21.70;34.10;;;;;;5116152;28;20054;-77
2022/03/02 07:24:57;;;;;;;3.10;2.20;;;21.70;34.10;;;;;;5116109;28;20056;-77
2022/03/02 07:27:23;;;;;;;2.38;2.15;;;21.80;34.00;;;;;;5116495;28;20551;-77
2022/03/02 07:29:52;;;;;;;2.92;2.30;;;21.80;34.00;;;;;;5116153;28;20188;-77
2022/03/02 07:32:21;;;;;;;2.35;2.15;;;21.80;33.90;;;;;;5115993;28;20495;-77
2022/03/02 07:34:55;;;;;;;2.83;2.55;;;21.90;33.90;;;;;;5097785;28;20070;-78
2022/03/02 07:37:22;;;;;;;2.60;2.40;;;21.90;33.90;;;;;;5116101;28;20054;-77
2022/03/02 07:39:47;;;;;;;3.25;2.58;;;21.90;33.80;;;;;;5116291;28;20051;-78
2022/03/02 07:42:13;;;;;;;2.72;2.47;;;21.90;33.70;;;;;;5115878;28;20059;-78
2022/03/02 07:44:41;;;;;;;2.42;2.22;;;21.90;33.70;;;;;;5114596;28;20070;-78
2022/03/02 07:47:10;;;;;;;2.50;2.30;;;22.00;33.80;;;;;;5115801;28;20090;-78
2022/03/02 07:49:36;;;;;;;2.65;2.35;;;21.90;33.70;;;;;;5112521;28;20059;-78
2022/03/02 07:52:05;;;;;;;2.67;2.47;;;22.00;33.70;;;;;;5115696;28;20051;-78
2022/03/02 07:54:34;;;;;;;2.55;2.35;;;22.00;33.70;;;;;;5115514;28;20617;-78
2022/03/02 07:57:01;;;;;;;2.65;2.33;;;22.00;33.70;;;;;;5096412;28;20107;-78
2022/03/02 07:59:36;;;;;;;2.55;2.17;;;22.00;33.70;;;;;;5097284;28;20483;-78
2022/03/02 08:02:08;;;;;;;3.50;2.65;;;22.00;33.70;;;;;;5115448;28;20059;-78
2022/03/02 08:04:38;;;;;;;2.88;2.30;;;21.90;33.70;;;;;;5115467;28;20142;-78
2022/03/02 08:07:04;;;;;;;2.70;2.33;;;21.90;33.80;;;;;;5097173;28;20352;-78
2022/03/02 08:09:34;;;;;;;2.97;2.55;;;21.90;33.80;;;;;;5079321;28;20098;-78
2022/03/02 08:12:01;;;;;;;2.70;2.30;;;21.90;33.80;;;;;;5115420;28;20074;-78
2022/03/02 08:14:28;;;;;;;2.88;2.55;;;21.90;33.80;;;;;;5115165;28;20048;-78
2022/03/02 08:16:55;;;;;;;2.65;2.10;;;21.80;33.80;;;;;;5115230;28;20487;-78
2022/03/02 08:19:22;;;;;;;2.78;2.17;;;21.90;33.90;;;;;;5113553;28;20491;-78
2022/03/02 08:21:58;;;;;;;2.58;2.33;;;21.80;33.90;;;;;;5115222;28;20099;-78
2022/03/02 08:24:26;;;;;;;3.88;2.58;;;21.90;34.00;;;;;;5114921;28;20058;-78
2022/03/02 08:26:57;;;;;;;2.35;2.15;;;21.80;33.90;;;;;;5115296;28;20040;-78
2022/03/02 08:29:27;;;;;;;2.50;2.30;;;21.80;34.00;;;;;;5096590;28;20490;-78
2022/03/02 08:31:59;;;;;;;2.65;2.28;;;21.70;34.00;;;;;;5113699;28;20047;-78
2022/03/02 08:34:25;;;;;;;2.33;2.10;;;21.80;34.10;;;;;;5096432;28;20047;-78
2022/03/02 08:36:53;;;;;;;2.50;2.30;;;21.70;34.10;;;;;;5114796;28;20048;-78
2022/03/02 08:39:19;;;;;;;2.15;2.05;;;21.60;34.10;;;;;;5114779;28;20048;-78
2022/03/02 08:41:45;;;;;;;2.97;2.42;;;21.60;34.20;;;;;;5115009;28;20050;-78
2022/03/02 08:44:12;;;;;;;2.92;2.47;;;21.60;34.20;;;;;;5114499;28;20423;-78
2022/03/02 08:46:39;;;;;;;2.95;2.42;;;21.60;34.30;;;;;;5114434;28;20047;-78
2022/03/02 08:49:05;;;;;;;2.70;2.50;;;21.60;34.30;;;;;;5114719;28;20074;-78
2022/03/02 08:51:33;;;;;;;2.50;2.22;;;21.50;34.30;;;;;;5114322;28;20048;-78
2022/03/02 08:54:02;;;;;;;2.50;2.30;;;21.50;34.40;;;;;;5113539;28;20055;-77
2022/03/02 08:56:37;;;;;;;2.55;2.35;;;21.50;34.40;;;;;;5095297;28;20059;-79
2022/03/02 08:59:03;;;;;;;2.40;2.20;;;21.40;34.40;;;;;;5114584;28;20064;-78
2022/03/02 09:01:30;;;;;;;2.60;2.38;;;21.40;34.50;;;;;;5114257;28;20048;-76
2022/03/02 09:03:59;;;;;;;2.45;2.25;;;21.40;34.50;;;;;;5094580;28;20116;-76
2022/03/02 09:06:27;;;;;;;2.38;2.17;;;21.40;34.50;;;;;;5114129;28;20475;-76
2022/03/02 09:08:55;;;;;;;2.45;2.25;;;21.40;34.60;;;;;;5114213;28;20054;-77
2022/03/02 09:11:21;;;;;;;2.38;2.13;;;21.40;34.60;;;;;;5114336;28;20090;-77
2022/03/02 09:13:49;;;;;;;2.03;1.90;;;21.30;34.60;;;;;;5111978;28;20052;-77
2022/03/02 09:16:16;;;;;;;3.13;2.70;;;21.30;34.60;;;;;;5114088;28;20048;-77
2022/03/02 09:18:42;;;;;;;2.92;2.63;;;21.30;34.60;;;;;;5095900;28;20501;-77
2022/03/02 09:21:08;;;;;;;2.50;2.30;;;21.30;34.60;;;;;;5114233;28;20071;-77
2022/03/02 09:23:38;;;;;;;2.55;2.25;;;21.30;34.70;;;;;;5095738;28;20051;-77
2022/03/02 09:26:06;;;;;;;2.70;2.33;;;21.30;34.70;;;;;;5113953;28;20508;-77
2022/03/02 09:28:34;;;;;;;2.80;2.40;;;21.30;34.70;;;;;;5114098;28;20047;-77
2022/03/02 09:31:06;;;;;;;2.35;2.15;;;21.30;34.70;;;;;;5094137;28;20048;-77
2022/03/02 09:33:34;;;;;;;2.78;2.40;;;21.30;34.70;;;;;;5094082;28;20052;-77
2022/03/02 09:36:06;;;;;;;3.38;2.88;;;21.30;34.70;;;;;;5113771;28;20092;-77
2022/03/02 09:38:34;;;;;;;2.90;2.33;;;21.30;34.70;;;;;;5096033;28;20057;-77
2022/03/02 09:41:08;;;;;;;2.60;2.40;;;21.30;34.70;;;;;;5114057;28;20120;-77
2022/03/02 09:43:36;;;;;;;2.90;2.38;;;21.30;34.80;;;;;;5089824;28;20202;-77
2022/03/02 09:46:07;;;;;;;3.08;2.78;;;21.20;34.70;;;;;;5113725;28;20063;-77
2022/03/02 09:48:44;;;;;;;2.40;2.20;;;21.30;34.80;;;;;;5113908;28;20051;-77
2022/03/02 09:51:10;;;;;;;2.53;2.33;;;21.20;34.80;;;;;;5094999;28;20052;-77
2022/03/02 09:53:36;;;;;;;2.58;2.28;;;21.20;34.80;;;;;;5113599;28;20407;-77
2022/03/02 09:56:06;;;;;;;2.15;1.90;;;21.20;34.70;;;;;;5113494;28;20078;-77
2022/03/02 09:58:37;;;;;;;2.63;2.30;;;21.30;34.80;;;;;;5095346;28;20472;-77
2022/03/02 10:01:08;;;;;;;2.42;2.00;;;21.20;34.80;;;;;;5095533;28;20054;-77
2022/03/02 10:03:37;;;;;;;2.72;2.53;;;21.20;35.30;;;;;;5113539;28;20058;-77
2022/03/02 10:06:05;;;;;;;3.25;2.63;;;21.20;34.80;;;;;;5113802;28;20043;-77
2022/03/02 10:08:35;;;;;;;2.60;2.40;;;21.20;34.80;;;;;;5113315;28;20054;-77
2022/03/02 10:11:06;;;;;;;2.53;2.17;;;21.20;34.80;;;;;;5111642;28;20058;-77
2022/03/02 10:13:33;;;;;;;3.17;2.60;;;21.20;34.80;;;;;;5113430;28;20373;-77
2022/03/02 10:16:05;;;;;;;2.60;2.35;;;21.20;34.80;;;;;;5113087;28;20073;-77
2022/03/02 10:18:34;;;;;;;3.50;2.47;;;21.20;34.80;;;;;;5113319;28;20073;-77
2022/03/02 10:21:02;;;;;;;2.78;2.45;;;21.20;34.80;;;;;;5113094;28;20142;-77
2022/03/02 10:23:42;;;;;;;2.72;2.28;;;21.20;34.80;;;;;;5113120;28;20090;-77
2022/03/02 10:26:18;;;;;;;2.72;2.30;;;21.20;34.80;;;;;;5113323;28;20048;-77
2022/03/02 10:29:25;;;;;;;2.92;2.60;;;21.20;34.80;;;;;;5112440;28;20055;-77
2022/03/02 10:32:08;;;;;;;2.92;2.63;;;21.20;34.70;;;;;;5113036;28;20487;-77
2022/03/02 10:34:37;;;;;;;2.72;2.45;;;21.20;34.70;;;;;;5113183;28;20066;-77
2022/03/02 10:37:28;;;;;;;3.20;2.90;;;21.20;34.70;;;;;;5113024;28;20136;-77
2022/03/02 10:40:12;;;;;;;3.15;2.60;;;21.20;34.70;;;;;;5078135;28;20051;-77
2022/03/02 10:42:44;;;;;;;3.33;2.40;;;21.20;34.70;;;;;;5112959;28;20058;-77
2022/03/02 10:45:15;;;;;;;;;;;21.20;34.70;;;;;;5113345;28;20059;-77
2022/03/02 10:48:11;;;;;;;2.55;2.33;;;21.20;34.60;;;;;;5092631;28;20374;-77
2022/03/02 10:50:40;;;;;;;3.03;2.60;;;21.20;34.60;;;;;;5101331;28;20515;-77
2022/03/02 10:53:13;;;;;;;3.25;2.40;;;21.20;34.60;;;;;;5112694;28;20056;-77
2022/03/02 10:55:46;;;;;;;2.55;2.35;;;21.20;34.60;;;;;;5093352;28;20056;-77
2022/03/02 10:58:19;;;;;;;2.92;2.60;;;21.20;34.60;;;;;;5112662;28;20159;-77
2022/03/02 11:00:47;;;;;;;2.83;2.50;;;21.20;34.60;;;;;;5112593;28;20441;-77
2022/03/02 11:03:14;;;;;;;2.50;2.30;;;21.20;34.60;;;;;;5094411;28;20087;-77
2022/03/02 11:05:40;;;;;;;3.08;2.75;;;21.20;34.60;;;;;;5112669;28;20458;-77
2022/03/02 11:08:06;;;;;;;3.20;2.90;;;21.20;34.60;;;;;;5112667;28;20047;-77
2022/03/02 11:10:33;;;;;;;2.95;2.65;;;21.30;34.70;;;;;;5112915;28;20100;-77
2022/03/02 11:13:12;;;;;;;2.40;2.20;;;21.20;34.70;;;;;;5093916;28;20103;-77
2022/03/02 11:15:46;;;;;;;2.78;2.42;;;21.20;34.70;;;;;;5076604;28;20048;-77
2022/03/02 11:18:16;;;;;;;2.90;2.65;;;21.20;34.70;;;;;;5111146;28;20047;-77
2022/03/02 11:20:52;;;;;;;2.85;2.30;;;21.20;34.60;;;;;;5094214;28;20112;-77
2022/03/02 11:23:24;;;;;;;3.08;2.40;;;21.20;34.60;;;;;;5112492;28;20547;-77
2022/03/02 11:25:52;;;;;;;2.85;2.55;;;21.20;34.60;;;;;;5112637;28;20051;-77
2022/03/02 11:28:23;;;;;;;2.38;2.17;;;21.30;34.70;;;;;;5112506;28;20480;-77
2022/03/02 11:30:52;;;;;;;3.00;2.45;;;21.20;34.70;;;;;;5108947;28;20074;-77
2022/03/02 11:33:26;;;;;;;3.10;2.80;;;21.30;34.70;;;;;;5112382;28;20051;-78
2022/03/02 11:35:53;;;;;;;3.65;2.65;;;21.30;34.70;;;;;;5112283;28;20127;-77
2022/03/02 11:38:27;;;;;;;2.97;2.67;;;21.30;34.70;;;;;;5112382;28;20136;-77
2022/03/02 11:40:52;;;;;;;2.42;2.22;;;21.30;34.70;;;;;;5112414;28;20043;-77
2022/03/02 11:43:22;;;;;;;3.42;2.78;;;21.30;34.60;;;;;;5112634;28;20051;-77
2022/03/02 11:45:51;;;;;;;2.70;2.50;;;21.30;34.60;;;;;;5112186;28;20134;-77
2022/03/02 11:48:20;;;;;;;2.63;2.38;;;21.30;34.60;;;;;;5111933;28;20101;-77
2022/03/02 11:51:06;;;;;;;3.00;2.70;;;21.30;34.60;;;;;;5112281;28;20052;-77
2022/03/02 11:53:47;;;;;;;2.60;2.40;;;21.30;34.60;;;;;;5094103;28;20387;-78
2022/03/02 11:56:17;;;;;;;2.93;2.50;;;21.30;35.20;;;;;;5093080;28;20074;-77
2022/03/02 11:58:56;;;;;;;3.28;2.58;;;21.30;34.60;;;;;;5112001;28;20308;-77
2022/03/02 12:01:23;;;;;;;3.10;2.60;;;21.30;34.60;;;;;;5091933;28;20415;-78
2022/03/02 12:04:16;;;;;;;3.58;2.78;;;21.30;34.60;;;;;;5093759;28;20070;-77
2022/03/02 12:07:04;;;;;;;2.65;2.42;;;21.30;34.60;;;;;;5076082;28;20051;-77
2022/03/02 12:09:32;;;;;;;3.25;2.72;;;21.30;34.60;;;;;;5115625;28;20532;-77
2022/03/02 12:12:12;;;;;;;2.88;2.55;;;21.20;34.60;;;;;;5115372;28;20136;-77
2022/03/02 12:15:01;;;;;;;3.00;2.28;;;21.30;34.60;;;;;;5115489;28;20043;-77
2022/03/02 12:17:30;;;;;;;3.38;2.53;;;21.30;34.60;;;;;;5115019;28;20050;-77
2022/03/02 12:20:03;;;;;;;3.47;2.80;;;21.30;34.60;;;;;;5115639;28;20056;-77
2022/03/02 12:22:31;;;;;;;2.65;2.40;;;21.30;34.60;;;;;;5115300;28;20051;-77
2022/03/02 12:24:58;;;;;;;2.95;2.65;;;21.30;34.60;;;;;;5115195;28;20075;-78
2022/03/02 12:27:24;;;;;;;2.85;2.55;;;21.30;34.60;;;;;;5114988;28;20068;-77
2022/03/02 12:29:56;;;;;;;2.65;2.20;;;21.30;34.70;;;;;;5097048;28;20142;-77
2022/03/02 12:32:26;;;;;;;3.05;2.72;;;21.30;34.70;;;;;;5115264;28;20043;-77
2022/03/02 12:34:52;;;;;;;3.40;2.90;;;21.30;34.70;;;;;;5096590;28;20043;-77
2022/03/02 12:37:20;;;;;;;3.25;2.50;;;21.20;34.60;;;;;;5096394;28;20058;-78
2022/03/02 12:39:47;;;;;;;2.85;2.58;;;21.30;34.70;;;;;;5096557;28;20495;-78
2022/03/02 12:42:14;;;;;;;3.55;2.85;;;21.20;34.60;;;;;;5094985;28;20048;-78
2022/03/02 12:45:06;;;;;;;2.75;2.50;;;21.30;34.70;;;;;;5114959;28;20043;-77
2022/03/02 12:47:32;;;;;;;2.65;2.42;;;21.20;34.70;;;;;;5091666;28;20138;-77
2022/03/02 12:49:59;;;;;;;2.78;2.50;;;21.20;34.60;;;;;;5114835;28;20057;-77
2022/03/02 12:52:27;;;;;;;2.92;2.58;;;21.20;34.60;;;;;;5096708;28;20079;-77
2022/03/02 12:54:54;;;;;;;2.88;2.50;;;21.20;34.60;;;;;;5096433;28;20108;-77
2022/03/02 12:57:26;;;;;;;3.95;2.45;;;21.20;34.60;;;;;;5114574;28;20411;-77